Norfolk Naval Air Station, Virginia
Current Conditions -  °F | °C
As of 9:59 PM on Thursday 18 Dec 2014 (Local Time) from KNGU Reporting Station
Broken Clouds Broken Clouds  
Wind Chill: 38°   Ceiling: 25000
Heat Index: 43°   Visibility: 10mi
Dew Point: 30°   Wind: 9mph
Humidity: 60%   Direction: 360°N
Pressure: 30.12"   Gusts: NA
Location:  36.9343°N, 76.284°W
Report Text: KNGU 190259Z 36008KT 10SM SCT090 BKN250 06/M01 A3012 RMK AO2 SLP199 T00611011 58001
Loading
Personal Weather Stations






























Interactive Weather Map New forecast layout! Learn more

10-Day Weather Forecast

Advertisements
Track Severe Weather on mobile